sensor_id;sensor_type;location;lat;lon;timestamp;pressure;altitude;pressure_sealevel;temperature;humidity
50867;BME280;36839;51.946;21.002;2023-05-28T00:01:15;100911.80;;;5.65;100.00
50867;BME280;36839;51.946;21.002;2023-05-28T00:03:53;100914.70;;;5.62;100.00
50867;BME280;36839;51.946;21.002;2023-05-28T00:06:24;100910.66;;;5.58;100.00
50867;BME280;36839;51.946;21.002;2023-05-28T00:08:52;100914.33;;;5.58;100.00
50867;BME280;36839;51.946;21.002;2023-05-28T00:11:22;100912.23;;;5.57;100.00
50867;BME280;36839;51.946;21.002;2023-05-28T00:13:51;100912.28;;;5.55;100.00
50867;BME280;36839;51.946;21.002;2023-05-28T00:16:20;100916.99;;;5.52;100.00
50867;BME280;36839;51.946;21.002;2023-05-28T00:18:48;100913.21;;;5.48;100.00
50867;BME280;36839;51.946;21.002;2023-05-28T00:21:17;100916.41;;;5.45;100.00
50867;BME280;36839;51.946;21.002;2023-05-28T00:23:47;100916.00;;;5.42;100.00
50867;BME280;36839;51.946;21.002;2023-05-28T00:26:17;100914.48;;;5.39;100.00
50867;BME280;36839;51.946;21.002;2023-05-28T00:28:44;100909.11;;;5.37;100.00
50867;BME280;36839;51.946;21.002;2023-05-28T00:31:13;100907.11;;;5.33;100.00
50867;BME280;36839;51.946;21.002;2023-05-28T00:33:42;100911.67;;;5.28;100.00
50867;BME280;36839;51.946;21.002;2023-05-28T00:36:14;100910.50;;;5.21;100.00
50867;BME280;36839;51.946;21.002;2023-05-28T00:38:43;100906.22;;;5.18;100.00
50867;BME280;36839;51.946;21.002;2023-05-28T00:41:23;100899.37;;;5.16;100.00
50867;BME280;36839;51.946;21.002;2023-05-28T00:43:51;100900.52;;;5.14;100.00
50867;BME280;36839;51.946;21.002;2023-05-28T00:46:25;100898.04;;;5.10;100.00
50867;BME280;36839;51.946;21.002;2023-05-28T00:48:54;100900.16;;;5.06;100.00
50867;BME280;36839;51.946;21.002;2023-05-28T00:51:24;100897.45;;;5.04;100.00
50867;BME280;36839;51.946;21.002;2023-05-28T00:53:51;100894.80;;;5.01;100.00
50867;BME280;36839;51.946;21.002;2023-05-28T00:56:20;100897.23;;;4.97;100.00
50867;BME280;36839;51.946;21.002;2023-05-28T00:58:50;100896.98;;;4.93;100.00
50867;BME280;36839;51.946;21.002;2023-05-28T01:01:21;100897.61;;;4.91;100.00
50867;BME280;36839;51.946;21.002;2023-05-28T01:03:49;100896.86;;;4.90;100.00
50867;BME280;36839;51.946;21.002;2023-05-28T01:06:21;100890.84;;;4.90;100.00
50867;BME280;36839;51.946;21.002;2023-05-28T01:08:51;100895.61;;;4.90;100.00
50867;BME280;36839;51.946;21.002;2023-05-28T01:11:20;100899.66;;;4.88;100.00
50867;BME280;36839;51.946;21.002;2023-05-28T01:13:49;100898.31;;;4.87;100.00
50867;BME280;36839;51.946;21.002;2023-05-28T01:16:18;100894.00;;;4.83;100.00
50867;BME280;36839;51.946;21.002;2023-05-28T01:18:49;100894.80;;;4.80;100.00
50867;BME280;36839;51.946;21.002;2023-05-28T01:21:23;100896.38;;;4.77;100.00
50867;BME280;36839;51.946;21.002;2023-05-28T01:24:01;100894.79;;;4.71;100.00
50867;BME280;36839;51.946;21.002;2023-05-28T01:26:29;100891.36;;;4.64;100.00
50867;BME280;36839;51.946;21.002;2023-05-28T01:29:00;100886.88;;;4.57;100.00
50867;BME280;36839;51.946;21.002;2023-05-28T01:31:30;100881.54;;;4.52;100.00
50867;BME280;36839;51.946;21.002;2023-05-28T01:34:00;100876.20;;;4.50;100.00
50867;BME280;36839;51.946;21.002;2023-05-28T01:36:37;100871.93;;;4.47;100.00
50867;BME280;36839;51.946;21.002;2023-05-28T01:39:06;100869.98;;;4.45;100.00
50867;BME280;36839;51.946;21.002;2023-05-28T01:41:40;100871.41;;;4.44;100.00
50867;BME280;36839;51.946;21.002;2023-05-28T01:44:12;100868.92;;;4.45;100.00
50867;BME280;36839;51.946;21.002;2023-05-28T01:46:41;100866.23;;;4.45;100.00
50867;BME280;36839;51.946;21.002;2023-05-28T01:49:11;100862.91;;;4.45;100.00
50867;BME280;36839;51.946;21.002;2023-05-28T01:51:41;100862.48;;;4.45;100.00
50867;BME280;36839;51.946;21.002;2023-05-28T01:54:08;100861.20;;;4.43;100.00
50867;BME280;36839;51.946;21.002;2023-05-28T01:56:38;100854.20;;;4.37;100.00
50867;BME280;36839;51.946;21.002;2023-05-28T01:59:06;100855.20;;;4.32;100.00
50867;BME280;36839;51.946;21.002;2023-05-28T02:01:33;100849.27;;;4.33;100.00
50867;BME280;36839;51.946;21.002;2023-05-28T02:04:07;100852.27;;;4.31;100.00
50867;BME280;36839;51.946;21.002;2023-05-28T02:06:38;100851.11;;;4.25;100.00
50867;BME280;36839;51.946;21.002;2023-05-28T02:09:12;100849.86;;;4.18;100.00
50867;BME280;36839;51.946;21.002;2023-05-28T02:11:47;100856.25;;;4.14;100.00
50867;BME280;36839;51.946;21.002;2023-05-28T02:14:29;100851.02;;;4.09;100.00
50867;BME280;36839;51.946;21.002;2023-05-28T02:16:58;100851.55;;;4.06;100.00
50867;BME280;36839;51.946;21.002;2023-05-28T02:19:28;100849.81;;;4.07;100.00
50867;BME280;36839;51.946;21.002;2023-05-28T02:21:57;100845.29;;;4.06;100.00
50867;BME280;36839;51.946;21.002;2023-05-28T02:24:29;100845.30;;;4.03;100.00
50867;BME280;36839;51.946;21.002;2023-05-28T02:26:58;100843.99;;;4.02;100.00
50867;BME280;36839;51.946;21.002;2023-05-28T02:29:26;100848.16;;;4.00;100.00
50867;BME280;36839;51.946;21.002;2023-05-28T02:31:56;100847.27;;;3.97;100.00
50867;BME280;36839;51.946;21.002;2023-05-28T02:34:26;100849.13;;;3.98;100.00
50867;BME280;36839;51.946;21.002;2023-05-28T02:37:04;100850.36;;;3.99;100.00
50867;BME280;36839;51.946;21.002;2023-05-28T02:39:31;100848.12;;;4.00;100.00
50867;BME280;36839;51.946;21.002;2023-05-28T02:41:59;100847.14;;;3.97;100.00
50867;BME280;36839;51.946;21.002;2023-05-28T02:44:28;100845.67;;;3.94;100.00
50867;BME280;36839;51.946;21.002;2023-05-28T02:46:56;100847.56;;;3.93;100.00
50867;BME280;36839;51.946;21.002;2023-05-28T02:49:25;100843.13;;;3.91;100.00
50867;BME280;36839;51.946;21.002;2023-05-28T02:51:54;100845.02;;;3.90;100.00
50867;BME280;36839;51.946;21.002;2023-05-28T02:54:25;100844.98;;;3.89;100.00
50867;BME280;36839;51.946;21.002;2023-05-28T02:56:53;100842.62;;;3.90;100.00
50867;BME280;36839;51.946;21.002;2023-05-28T02:59:23;100850.06;;;3.92;100.00
50867;BME280;36839;51.946;21.002;2023-05-28T03:01:51;100848.24;;;3.93;100.00
50867;BME280;36839;51.946;21.002;2023-05-28T03:04:18;100849.83;;;3.95;100.00
50867;BME280;36839;51.946;21.002;2023-05-28T03:06:49;100853.96;;;3.98;100.00
50867;BME280;36839;51.946;21.002;2023-05-28T03:09:19;100855.52;;;4.01;100.00
50867;BME280;36839;51.946;21.002;2023-05-28T03:11:58;100857.18;;;4.07;100.00
50867;BME280;36839;51.946;21.002;2023-05-28T03:14:28;100860.05;;;4.11;100.00
50867;BME280;36839;51.946;21.002;2023-05-28T03:16:58;100861.04;;;4.14;100.00
50867;BME280;36839;51.946;21.002;2023-05-28T03:19:29;100863.95;;;4.18;100.00
50867;BME280;36839;51.946;21.002;2023-05-28T03:22:04;100857.20;;;4.23;100.00
50867;BME280;36839;51.946;21.002;2023-05-28T03:24:33;100860.36;;;4.28;100.00
50867;BME280;36839;51.946;21.002;2023-05-28T03:27:03;100857.21;;;4.34;100.00
50867;BME280;36839;51.946;21.002;2023-05-28T03:29:34;100860.83;;;4.42;100.00
50867;BME280;36839;51.946;21.002;2023-05-28T03:32:02;100863.85;;;4.47;100.00
50867;BME280;36839;51.946;21.002;2023-05-28T03:34:36;100858.73;;;4.52;100.00
50867;BME280;36839;51.946;21.002;2023-05-28T03:37:05;100854.89;;;4.59;100.00
50867;BME280;36839;51.946;21.002;2023-05-28T03:39:35;100857.09;;;4.65;100.00
50867;BME280;36839;51.946;21.002;2023-05-28T03:42:05;100860.52;;;4.73;100.00
50867;BME280;36839;51.946;21.002;2023-05-28T03:44:35;100859.70;;;4.84;100.00
50867;BME280;36839;51.946;21.002;2023-05-28T03:47:15;100862.45;;;4.95;100.00
50867;BME280;36839;51.946;21.002;2023-05-28T03:49:43;100866.70;;;5.04;100.00
50867;BME280;36839;51.946;21.002;2023-05-28T03:52:12;100866.14;;;5.11;100.00
50867;BME280;36839;51.946;21.002;2023-05-28T03:54:49;100866.38;;;5.17;100.00
50867;BME280;36839;51.946;21.002;2023-05-28T03:57:17;100870.77;;;5.22;100.00
50867;BME280;36839;51.946;21.002;2023-05-28T03:59:45;100869.27;;;5.27;100.00
50867;BME280;36839;51.946;21.002;2023-05-28T04:02:14;100867.80;;;5.32;100.00
50867;BME280;36839;51.946;21.002;2023-05-28T04:04:41;100874.06;;;5.42;100.00
50867;BME280;36839;51.946;21.002;2023-05-28T04:07:17;100874.20;;;5.54;100.00
50867;BME280;36839;51.946;21.002;2023-05-28T04:09:54;100872.38;;;5.66;100.00
50867;BME280;36839;51.946;21.002;2023-05-28T04:12:22;100870.50;;;5.79;100.00
50867;BME280;36839;51.946;21.002;2023-05-28T04:14:50;100870.21;;;5.90;100.00
50867;BME280;36839;51.946;21.002;2023-05-28T04:17:18;100869.33;;;6.02;100.00
50867;BME280;36839;51.946;21.002;2023-05-28T04:19:48;100866.41;;;6.17;100.00
50867;BME280;36839;51.946;21.002;2023-05-28T04:22:20;100864.95;;;6.32;100.00
50867;BME280;36839;51.946;21.002;2023-05-28T04:24:52;100865.44;;;6.49;100.00
50867;BME280;36839;51.946;21.002;2023-05-28T04:27:22;100860.16;;;6.64;100.00
50867;BME280;36839;51.946;21.002;2023-05-28T04:30:00;100860.05;;;6.80;100.00
50867;BME280;36839;51.946;21.002;2023-05-28T04:32:30;100858.17;;;6.95;100.00
50867;BME280;36839;51.946;21.002;2023-05-28T04:34:59;100857.96;;;7.09;100.00
50867;BME280;36839;51.946;21.002;2023-05-28T04:37:34;100858.13;;;7.25;100.00
50867;BME280;36839;51.946;21.002;2023-05-28T04:40:05;100860.91;;;7.42;100.00
50867;BME280;36839;51.946;21.002;2023-05-28T04:42:33;100862.17;;;7.59;100.00
50867;BME280;36839;51.946;21.002;2023-05-28T04:45:04;100855.19;;;7.76;100.00
50867;BME280;36839;51.946;21.002;2023-05-28T04:47:33;100851.15;;;7.95;100.00
50867;BME280;36839;51.946;21.002;2023-05-28T04:50:05;100851.64;;;8.15;100.00
50867;BME280;36839;51.946;21.002;2023-05-28T04:52:39;100851.13;;;8.33;100.00
50867;BME280;36839;51.946;21.002;2023-05-28T04:55:08;100850.53;;;8.52;100.00
50867;BME280;36839;51.946;21.002;2023-05-28T04:57:41;100853.63;;;8.69;100.00
50867;BME280;36839;51.946;21.002;2023-05-28T05:00:10;100846.39;;;8.85;100.00
50867;BME280;36839;51.946;21.002;2023-05-28T05:02:41;100847.73;;;9.02;100.00
50867;BME280;36839;51.946;21.002;2023-05-28T05:05:12;100849.17;;;9.19;100.00
50867;BME280;36839;51.946;21.002;2023-05-28T05:07:46;100847.36;;;9.36;100.00
50867;BME280;36839;51.946;21.002;2023-05-28T05:10:16;100845.70;;;9.51;100.00
50867;BME280;36839;51.946;21.002;2023-05-28T05:12:43;100848.27;;;9.65;100.00
50867;BME280;36839;51.946;21.002;2023-05-28T05:15:13;100849.86;;;9.81;100.00
50867;BME280;36839;51.946;21.002;2023-05-28T05:17:41;100846.41;;;9.95;100.00
50867;BME280;36839;51.946;21.002;2023-05-28T05:20:12;100850.25;;;10.11;100.00
50867;BME280;36839;51.946;21.002;2023-05-28T05:22:40;100846.73;;;10.25;100.00
50867;BME280;36839;51.946;21.002;2023-05-28T05:25:21;100840.67;;;10.40;99.98
50867;BME280;36839;51.946;21.002;2023-05-28T05:27:51;100842.75;;;10.54;98.72
50867;BME280;36839;51.946;21.002;2023-05-28T05:30:20;100841.98;;;10.66;97.65
50867;BME280;36839;51.946;21.002;2023-05-28T05:32:51;100840.71;;;10.79;97.86
50867;BME280;36839;51.946;21.002;2023-05-28T05:35:20;100837.76;;;10.90;95.65
50867;BME280;36839;51.946;21.002;2023-05-28T05:37:48;100838.23;;;11.02;93.79
50867;BME280;36839;51.946;21.002;2023-05-28T05:40:22;100836.73;;;11.16;93.10
50867;BME280;36839;51.946;21.002;2023-05-28T05:42:49;100839.92;;;11.29;91.65
50867;BME280;36839;51.946;21.002;2023-05-28T05:45:21;100840.41;;;11.44;91.06
50867;BME280;36839;51.946;21.002;2023-05-28T05:47:51;100837.05;;;11.56;89.24
50867;BME280;36839;51.946;21.002;2023-05-28T05:50:19;100837.82;;;11.67;87.28
50867;BME280;36839;51.946;21.002;2023-05-28T05:52:48;100832.80;;;11.80;84.30
50867;BME280;36839;51.946;21.002;2023-05-28T05:55:16;100833.77;;;11.94;83.83
50867;BME280;36839;51.946;21.002;2023-05-28T05:57:46;100831.77;;;12.07;82.50
50867;BME280;36839;51.946;21.002;2023-05-28T06:00:16;100834.97;;;12.21;83.62
50867;BME280;36839;51.946;21.002;2023-05-28T06:02:45;100829.02;;;12.35;80.21
50867;BME280;36839;51.946;21.002;2023-05-28T06:05:15;100829.22;;;12.50;81.97
50867;BME280;36839;51.946;21.002;2023-05-28T06:07:45;100831.42;;;12.65;82.31
50867;BME280;36839;51.946;21.002;2023-05-28T06:10:18;100835.69;;;12.78;78.99
50867;BME280;36839;51.946;21.002;2023-05-28T06:12:56;100832.48;;;12.92;77.32
50867;BME280;36839;51.946;21.002;2023-05-28T06:15:32;100827.83;;;13.05;76.48
50867;BME280;36839;51.946;21.002;2023-05-28T06:18:00;100830.23;;;13.14;76.03
50867;BME280;36839;51.946;21.002;2023-05-28T06:20:30;100829.91;;;13.28;76.82
50867;BME280;36839;51.946;21.002;2023-05-28T06:23:01;100826.78;;;13.39;75.43
50867;BME280;36839;51.946;21.002;2023-05-28T06:25:28;100826.69;;;13.49;74.24
50867;BME280;36839;51.946;21.002;2023-05-28T06:27:56;100824.37;;;13.60;73.03
50867;BME280;36839;51.946;21.002;2023-05-28T06:30:27;100824.27;;;13.73;72.50
50867;BME280;36839;51.946;21.002;2023-05-28T06:32:55;100823.45;;;13.84;71.24
50867;BME280;36839;51.946;21.002;2023-05-28T06:35:23;100825.50;;;13.97;70.36
50867;BME280;36839;51.946;21.002;2023-05-28T06:37:51;100828.55;;;14.10;70.24
50867;BME280;36839;51.946;21.002;2023-05-28T06:40:20;100829.21;;;14.20;67.96
50867;BME280;36839;51.946;21.002;2023-05-28T06:42:51;100829.48;;;14.28;65.59
50867;BME280;36839;51.946;21.002;2023-05-28T06:45:19;100827.18;;;14.39;65.84
50867;BME280;36839;51.946;21.002;2023-05-28T06:47:50;100827.41;;;14.45;65.53
50867;BME280;36839;51.946;21.002;2023-05-28T06:50:21;100826.23;;;14.58;64.76
50867;BME280;36839;51.946;21.002;2023-05-28T06:52:51;100828.67;;;14.72;63.93
50867;BME280;36839;51.946;21.002;2023-05-28T06:55:26;100827.80;;;14.84;63.09
50867;BME280;36839;51.946;21.002;2023-05-28T06:57:54;100825.06;;;14.98;60.95
50867;BME280;36839;51.946;21.002;2023-05-28T07:00:29;100819.95;;;15.09;59.01
50867;BME280;36839;51.946;21.002;2023-05-28T07:02:57;100820.02;;;15.20;56.23
50867;BME280;36839;51.946;21.002;2023-05-28T07:05:27;100821.83;;;15.33;56.32
50867;BME280;36839;51.946;21.002;2023-05-28T07:08:05;100820.87;;;15.42;55.26
50867;BME280;36839;51.946;21.002;2023-05-28T07:10:35;100821.45;;;15.50;55.46
50867;BME280;36839;51.946;21.002;2023-05-28T07:13:06;100824.86;;;15.57;53.92
50867;BME280;36839;51.946;21.002;2023-05-28T07:15:34;100823.34;;;15.60;51.23
50867;BME280;36839;51.946;21.002;2023-05-28T07:18:05;100828.08;;;15.62;50.55
50867;BME280;36839;51.946;21.002;2023-05-28T07:20:32;100825.05;;;15.65;51.50
50867;BME280;36839;51.946;21.002;2023-05-28T07:23:01;100822.42;;;15.75;49.62
50867;BME280;36839;51.946;21.002;2023-05-28T07:25:29;100818.83;;;15.83;49.36
50867;BME280;36839;51.946;21.002;2023-05-28T07:27:58;100815.98;;;15.93;48.51
50867;BME280;36839;51.946;21.002;2023-05-28T07:30:29;100815.61;;;15.90;47.36
50867;BME280;36839;51.946;21.002;2023-05-28T07:33:07;100812.55;;;15.95;48.79
50867;BME280;36839;51.946;21.002;2023-05-28T07:35:44;100807.55;;;16.06;47.71
50867;BME280;36839;51.946;21.002;2023-05-28T07:38:27;100805.48;;;16.19;47.92
50867;BME280;36839;51.946;21.002;2023-05-28T07:40:56;100806.48;;;16.28;47.21
50867;BME280;36839;51.946;21.002;2023-05-28T07:43:37;100803.49;;;16.39;47.82
50867;BME280;36839;51.946;21.002;2023-05-28T07:46:05;100800.63;;;16.56;46.44
50867;BME280;36839;51.946;21.002;2023-05-28T07:48:36;100799.39;;;16.63;45.48
50867;BME280;36839;51.946;21.002;2023-05-28T07:51:03;100799.99;;;16.58;44.82
50867;BME280;36839;51.946;21.002;2023-05-28T07:53:34;100799.33;;;16.63;44.88
50867;BME280;36839;51.946;21.002;2023-05-28T07:56:03;100797.48;;;16.71;44.14
50867;BME280;36839;51.946;21.002;2023-05-28T07:58:33;100797.77;;;16.78;45.82
50867;BME280;36839;51.946;21.002;2023-05-28T08:01:04;100801.11;;;16.88;45.19
50867;BME280;36839;51.946;21.002;2023-05-28T08:03:39;100797.79;;;16.91;44.95
50867;BME280;36839;51.946;21.002;2023-05-28T08:06:06;100799.05;;;16.97;43.55
50867;BME280;36839;51.946;21.002;2023-05-28T08:08:46;100799.47;;;17.07;42.61
50867;BME280;36839;51.946;21.002;2023-05-28T08:11:15;100792.38;;;17.20;43.62
50867;BME280;36839;51.946;21.002;2023-05-28T08:13:43;100793.90;;;17.27;42.60
50867;BME280;36839;51.946;21.002;2023-05-28T08:16:14;100791.87;;;17.20;41.35
50867;BME280;36839;51.946;21.002;2023-05-28T08:18:43;100790.73;;;17.25;43.17
50867;BME280;36839;51.946;21.002;2023-05-28T08:21:13;100795.02;;;17.37;42.72
50867;BME280;36839;51.946;21.002;2023-05-28T08:23:41;100792.00;;;17.49;41.25
50867;BME280;36839;51.946;21.002;2023-05-28T08:26:08;100787.88;;;17.44;40.34
50867;BME280;36839;51.946;21.002;2023-05-28T08:28:36;100786.43;;;17.48;42.08
50867;BME280;36839;51.946;21.002;2023-05-28T08:31:05;100785.44;;;17.66;43.51
50867;BME280;36839;51.946;21.002;2023-05-28T08:33:33;100785.19;;;17.82;43.56
50867;BME280;36839;51.946;21.002;2023-05-28T08:36:07;100780.49;;;17.86;43.70
50867;BME280;36839;51.946;21.002;2023-05-28T08:38:37;100783.06;;;17.92;42.82
50867;BME280;36839;51.946;21.002;2023-05-28T08:41:05;100783.84;;;17.93;41.06
50867;BME280;36839;51.946;21.002;2023-05-28T08:43:40;100780.27;;;17.93;40.54
50867;BME280;36839;51.946;21.002;2023-05-28T08:46:23;100779.41;;;18.03;40.27
50867;BME280;36839;51.946;21.002;2023-05-28T08:48:52;100776.70;;;18.10;39.72
50867;BME280;36839;51.946;21.002;2023-05-28T08:51:20;100773.60;;;18.15;39.46
50867;BME280;36839;51.946;21.002;2023-05-28T08:53:51;100776.02;;;18.14;38.13
50867;BME280;36839;51.946;21.002;2023-05-28T08:56:20;100778.60;;;18.26;39.97
50867;BME280;36839;51.946;21.002;2023-05-28T08:58:50;100779.18;;;18.42;39.48
50867;BME280;36839;51.946;21.002;2023-05-28T09:01:19;100770.63;;;18.53;40.13
50867;BME280;36839;51.946;21.002;2023-05-28T09:03:47;100774.80;;;18.57;37.87
50867;BME280;36839;51.946;21.002;2023-05-28T09:06:19;100773.02;;;18.60;38.13
50867;BME280;36839;51.946;21.002;2023-05-28T09:08:49;100770.14;;;18.59;37.88
50867;BME280;36839;51.946;21.002;2023-05-28T09:11:18;100765.59;;;18.53;39.31
50867;BME280;36839;51.946;21.002;2023-05-28T09:13:48;100770.90;;;18.63;40.00
50867;BME280;36839;51.946;21.002;2023-05-28T09:16:23;100768.46;;;18.61;38.29
50867;BME280;36839;51.946;21.002;2023-05-28T09:19:01;100763.09;;;18.30;39.25
50867;BME280;36839;51.946;21.002;2023-05-28T09:21:30;100766.31;;;18.09;41.05
50867;BME280;36839;51.946;21.002;2023-05-28T09:24:01;100765.02;;;18.19;41.07
50867;BME280;36839;51.946;21.002;2023-05-28T09:26:30;100761.09;;;18.38;40.08
50867;BME280;36839;51.946;21.002;2023-05-28T09:28:58;100761.02;;;18.42;39.36
50867;BME280;36839;51.946;21.002;2023-05-28T09:31:30;100761.19;;;18.44;40.08
50867;BME280;36839;51.946;21.002;2023-05-28T09:34:06;100750.55;;;18.39;38.85
50867;BME280;36839;51.946;21.002;2023-05-28T09:36:37;100747.77;;;18.38;38.97
50867;BME280;36839;51.946;21.002;2023-05-28T09:39:08;100744.78;;;18.42;40.27
50867;BME280;36839;51.946;21.002;2023-05-28T09:41:36;100742.50;;;18.47;40.09
50867;BME280;36839;51.946;21.002;2023-05-28T09:44:08;100735.47;;;18.58;41.20
50867;BME280;36839;51.946;21.002;2023-05-28T09:46:38;100734.20;;;18.87;42.58
50867;BME280;36839;51.946;21.002;2023-05-28T09:49:06;100736.67;;;19.16;42.43
50867;BME280;36839;51.946;21.002;2023-05-28T09:51:34;100736.36;;;19.34;40.27
50867;BME280;36839;51.946;21.002;2023-05-28T09:54:04;100733.73;;;19.48;40.05
50867;BME280;36839;51.946;21.002;2023-05-28T09:56:42;100729.84;;;19.47;39.89
50867;BME280;36839;51.946;21.002;2023-05-28T09:59:16;100726.23;;;19.50;39.58
50867;BME280;36839;51.946;21.002;2023-05-28T10:02:03;100726.85;;;19.52;39.09
50867;BME280;36839;51.946;21.002;2023-05-28T10:04:38;100724.27;;;19.64;39.12
50867;BME280;36839;51.946;21.002;2023-05-28T10:07:11;100722.92;;;19.62;38.37
50867;BME280;36839;51.946;21.002;2023-05-28T10:09:44;100716.34;;;19.70;39.13
50867;BME280;36839;51.946;21.002;2023-05-28T10:12:17;100712.11;;;19.82;40.07
50867;BME280;36839;51.946;21.002;2023-05-28T10:14:50;100711.04;;;19.96;39.92
50867;BME280;36839;51.946;21.002;2023-05-28T10:17:23;100705.41;;;20.10;39.52
50867;BME280;36839;51.946;21.002;2023-05-28T10:19:59;100702.45;;;20.27;40.02
50867;BME280;36839;51.946;21.002;2023-05-28T10:22:27;100708.22;;;20.40;39.74
50867;BME280;36839;51.946;21.002;2023-05-28T10:24:57;100700.23;;;20.45;37.47
50867;BME280;36839;51.946;21.002;2023-05-28T10:27:32;100700.83;;;20.34;35.82
50867;BME280;36839;51.946;21.002;2023-05-28T10:30:09;100706.88;;;20.20;36.14
50867;BME280;36839;51.946;21.002;2023-05-28T10:32:41;100704.91;;;20.32;36.18
50867;BME280;36839;51.946;21.002;2023-05-28T10:35:11;100698.69;;;20.34;35.54
50867;BME280;36839;51.946;21.002;2023-05-28T10:37:41;100694.58;;;20.43;37.42
50867;BME280;36839;51.946;21.002;2023-05-28T10:40:09;100696.17;;;20.52;36.53
50867;BME280;36839;51.946;21.002;2023-05-28T10:42:39;100691.78;;;20.54;36.03
50867;BME280;36839;51.946;21.002;2023-05-28T10:45:09;100690.27;;;20.56;36.72
50867;BME280;36839;51.946;21.002;2023-05-28T10:47:40;100691.48;;;20.63;36.24
50867;BME280;36839;51.946;21.002;2023-05-28T10:50:29;100687.29;;;20.80;38.08
50867;BME280;36839;51.946;21.002;2023-05-28T10:53:09;100688.14;;;21.08;37.56
50867;BME280;36839;51.946;21.002;2023-05-28T10:55:56;100684.91;;;21.17;35.83
50867;BME280;36839;51.946;21.002;2023-05-28T10:58:35;100682.08;;;21.21;35.81
50867;BME280;36839;51.946;21.002;2023-05-28T11:01:18;100676.91;;;21.27;36.08
50867;BME280;36839;51.946;21.002;2023-05-28T11:03:54;100672.80;;;21.25;36.37
50867;BME280;36839;51.946;21.002;2023-05-28T11:06:29;100668.80;;;21.27;35.47
50867;BME280;36839;51.946;21.002;2023-05-28T11:08:59;100656.55;;;21.32;36.76
50867;BME280;36839;51.946;21.002;2023-05-28T11:11:32;100662.29;;;21.39;35.55
50867;BME280;36839;51.946;21.002;2023-05-28T11:14:09;100662.73;;;21.49;34.60
50867;BME280;36839;51.946;21.002;2023-05-28T11:16:37;100658.40;;;21.56;35.48
50867;BME280;36839;51.946;21.002;2023-05-28T11:19:13;100652.36;;;21.64;37.00
50867;BME280;36839;51.946;21.002;2023-05-28T11:21:53;100657.91;;;21.81;36.41
50867;BME280;36839;51.946;21.002;2023-05-28T11:24:22;100654.06;;;21.85;33.74
50867;BME280;36839;51.946;21.002;2023-05-28T11:26:53;100656.11;;;21.75;33.12
50867;BME280;36839;51.946;21.002;2023-05-28T11:29:23;100654.02;;;21.29;34.30
50867;BME280;36839;51.946;21.002;2023-05-28T11:31:55;100653.77;;;21.07;34.30
50867;BME280;36839;51.946;21.002;2023-05-28T11:34:24;100651.64;;;21.05;34.35
50867;BME280;36839;51.946;21.002;2023-05-28T11:36:56;100650.02;;;21.17;34.82
50867;BME280;36839;51.946;21.002;2023-05-28T11:39:25;100648.55;;;21.21;34.71
50867;BME280;36839;51.946;21.002;2023-05-28T11:42:00;100649.56;;;21.16;35.12
50867;BME280;36839;51.946;21.002;2023-05-28T11:44:28;100646.05;;;21.14;35.90
50867;BME280;36839;51.946;21.002;2023-05-28T11:46:58;100644.57;;;21.39;36.61
50867;BME280;36839;51.946;21.002;2023-05-28T11:49:30;100642.42;;;21.69;35.80
50867;BME280;36839;51.946;21.002;2023-05-28T11:52:03;100642.13;;;21.91;35.72
50867;BME280;36839;51.946;21.002;2023-05-28T11:54:34;100640.93;;;22.01;34.09
50867;BME280;36839;51.946;21.002;2023-05-28T11:57:05;100638.77;;;22.12;34.60
50867;BME280;36839;51.946;21.002;2023-05-28T11:59:36;100639.76;;;22.32;35.33
50867;BME280;36839;51.946;21.002;2023-05-28T12:02:15;100635.08;;;22.44;34.89
50867;BME280;36839;51.946;21.002;2023-05-28T12:05:01;100637.31;;;22.47;34.15
50867;BME280;36839;51.946;21.002;2023-05-28T12:07:33;100631.95;;;22.20;32.73
50867;BME280;36839;51.946;21.002;2023-05-28T12:12:55;100628.70;;;22.29;34.00
50867;BME280;36839;51.946;21.002;2023-05-28T12:15:29;100627.29;;;22.34;33.91
50867;BME280;36839;51.946;21.002;2023-05-28T12:18:00;100623.52;;;22.16;32.94
50867;BME280;36839;51.946;21.002;2023-05-28T12:20:32;100618.36;;;22.22;33.40
50867;BME280;36839;51.946;21.002;2023-05-28T12:23:12;100614.00;;;22.29;32.68
50867;BME280;36839;51.946;21.002;2023-05-28T12:25:49;100615.59;;;22.43;32.71
50867;BME280;36839;51.946;21.002;2023-05-28T12:28:24;100606.06;;;22.60;34.01
50867;BME280;36839;51.946;21.002;2023-05-28T12:31:01;100607.75;;;22.76;32.41
50867;BME280;36839;51.946;21.002;2023-05-28T12:33:32;100607.65;;;22.96;32.20
50867;BME280;36839;51.946;21.002;2023-05-28T12:36:04;100606.80;;;23.06;30.67
50867;BME280;36839;51.946;21.002;2023-05-28T12:38:33;100606.78;;;23.20;30.68
50867;BME280;36839;51.946;21.002;2023-05-28T12:41:02;100606.05;;;23.24;30.62
50867;BME280;36839;51.946;21.002;2023-05-28T12:43:33;100603.13;;;23.26;30.63
50867;BME280;36839;51.946;21.002;2023-05-28T12:46:01;100600.57;;;23.40;30.61
50867;BME280;36839;51.946;21.002;2023-05-28T12:48:31;100600.93;;;23.67;32.29
50867;BME280;36839;51.946;21.002;2023-05-28T12:51:02;100600.50;;;23.76;31.36
50867;BME280;36839;51.946;21.002;2023-05-28T12:53:30;100600.10;;;23.87;32.26
50867;BME280;36839;51.946;21.002;2023-05-28T12:56:01;100601.28;;;24.06;31.45
50867;BME280;36839;51.946;21.002;2023-05-28T12:58:36;100593.32;;;24.18;30.50
50867;BME280;36839;51.946;21.002;2023-05-28T13:01:03;100597.20;;;23.97;31.69
50867;BME280;36839;51.946;21.002;2023-05-28T13:03:32;100597.80;;;23.93;30.54